Airfield :
LOGIN :

Register | Disclaimer

   EN    FR    IT 

 










Legend :    VFR   Marginal VFR   IFR   Intensive IFR   Very Intensive IFR
Visi :
Ceiling :
>= 8 km
>= 3000ft
5 to 8 km
1000 to 3000 ft
1500m to 5 km
500 to 1000 ft
800 to 1500m
200 to 500 ft
< 800m
< 200 ft
Symbols :   Thunderstorms  Fog  Heavy snow  Heavy precipitations  Wind > 20 kt
SIGMETs :     Misc.  Thunderstorms  Icing  Turbulence  Mountain Waves  Volcanic Ashes







- Airport Elevation : 75 ft
- IATA code : MRH


EGYM - RAF Marham

CURRENT METAR :
  • 181050Z 25009KT 4000 -RADZ SCT012 BKN020 18/16 Q1008 TEMPO 2500 RADZ SCT005 RMK GRN TEMPO YLO1

EXPIRED METARs :
  • 181024Z 23008KT 9999 -RADZ SCT010 SCT018 OVC030 18/16 Q1008 TEMPO 2500 RADZ SCT005 RMK GRN TEMPO YLO1
  • 180950Z 24007KT 9999 SCT008 SCT020 OVC035 18/16 Q1008 TEMPO 2500 RADZ SCT005 RMK GRN TEMPO YLO1
  • 180920Z 23009KT 9999 -RADZ SCT007 OVC015 17/16 Q1008 TEMPO 2500 RADZ SCT005 RMK GRN TEMPO YLO1
  • 180850Z 23009KT 7000 -RADZ SCT006 SCT012 OVC025 17/16 Q1008 BECMG SCT008 RMK YLO1 BECMG GRN
  • 180820Z 23008KT 8000 -RA SCT006 OVC020 16/16 Q1008 BECMG SCT008 RMK YLO1 BECMG GRN

TAF TAF EGYM
Valid from the 18 at 09:00 until the 18 at 18:00 UTC


180736Z 1809/1818 21008KT 6000 -RADZ FEW009 BKN016
TEMPO 1809/1811 2500 RADZ BKN005 OVC010
PROB40
TEMPO 1809/1812 4000 SHRA BKN016TCU
BECMG 1812/1814 27010KT 9999 NSW FEW015 BKN030
No reported NOTAMs for that airfield.



MET'MAP, your aeronautical weather chart ! - Copyright ORBIFLY December 2007 - Disclaimer

ORBIFLY MET'MAP TEAM :

Programming & Development : Alexandra Zaïnal
Concept & Development : Baudouin d'Aumeries
Co-Development & Prog : Marc-Olivier Méhu
Technical & hardware support : Manuel Goepfert

Contact : metmap@orbifly.com




SOURCES & CREDITS :

   NOAA